If you wish to contribute or participate in the discussions about articles you are invited to join SKYbrary as a registered user

 Actions

Fort Smith Airport

From SKYbrary Wiki

CYSM
Airport
ICAO: CYSM
Summary
Name Fort Smith Airport
Region North America
Territory Canada CA.gif
Location Fort Smith, Northwest Territories
Serving
Coordinates 60° 1' 10.24" N, 111° 57' 29.77" W
Runways
Designator Length Width Surface ROPS
2/20 549 m1,801.181 ft
30 m98.425 ft
COM /
11/29 1829 m6,000.656 ft
61 m200.131 ft
ASP /


METAR
Observation CYSM 181700Z 31004KT 5SM -RASN OVC003 01/01 A2923 RMK ST8 SLP910
Station Fort Smith, N. W. T.
Date/Time 18 October 2019 17:00:00
Wind direction 310°
Wind speed 04 kts
Lowest cloud amount overcast
Temperature 1°C
Dew point 1°C
Humidity 100%
QNH hPa
Weather condition snow

BS
Tag(s) Bird Strike
Non Avian Wildlife Hazards to Aircraft
CFIT
Tag(s) Altimeter Temperature Error Correction
GND
Tag(s) Aircraft Ground De/Anti Icing
RE
Tag(s) Crosswind Landings
Landing on Contaminated Runways

Fort Smith Airport

ICAO: CYSM IATA: YSM

Description

Regional airport serving the town of Fort Smith, Northwest Territories, Canada.

Climatology

Subarctic climate (Köppen climate classification Dfc) - long, usually very cold winters, and short, cool to mild summers.

Maps

Terrain

Loading map...

Airport Layout

Loading map...


  • No winter maintenance on runway 02/20

Accidents & Serious Incidents at or in vicinity of CYSM

None on SKYbrary